Time;durP1;ratioP1;P1;durP2;ratioP2;P2;SDS_P1;SDS_P2;PMS_P1;PMS_P2;Temp;Humidity;BMP_temperature;BMP_pressure;BME280_temperature;BME280_humidity;BME280_pressure;Samples;Min_cycle;Max_cycle;Signal;HPM_P1;HPM_P2
2022/10/04 04:05:09;;;;;;;3.65;3.17;;;6.40;99.90;;;;;;5424449;22;20229;-65
2022/10/04 04:08:03;;;;;;;2.88;2.65;;;6.40;99.90;;;;;;5017711;28;20261;-65
2022/10/04 04:10:32;;;;;;;3.40;3.17;;;6.40;99.90;;;;;;5017836;28;20713;-66
2022/10/04 04:13:05;;;;;;;2.55;2.30;;;6.40;99.90;;;;;;5017408;28;20254;-65
2022/10/04 04:15:32;;;;;;;2.78;2.30;;;6.50;99.90;;;;;;4979121;28;20604;-66
2022/10/04 04:18:05;;;;;;;4.47;3.60;;;6.50;99.90;;;;;;4979500;28;20181;-65
2022/10/04 04:20:36;;;;;;;3.00;2.55;;;6.50;99.90;;;;;;4978747;28;20209;-65
2022/10/04 04:23:14;;;;;;;3.22;2.85;;;6.40;99.90;;;;;;4978295;28;20179;-66
2022/10/04 04:25:46;;;;;;;5.10;2.60;;;6.30;99.90;;;;;;4980573;28;20164;-67
2022/10/04 04:28:37;;;;;;;3.70;3.40;;;6.30;99.90;;;;;;4980073;28;20172;-66
2022/10/04 04:31:14;;;;;;;4.35;3.22;;;6.20;99.90;;;;;;4979202;28;20300;-66
2022/10/04 04:33:48;;;;;;;3.35;3.05;;;6.20;99.90;;;;;;4977266;28;20298;-66
2022/10/04 04:36:15;;;;;;;2.60;2.40;;;6.20;99.90;;;;;;4977967;28;20212;-65
2022/10/04 04:41:30;;;;;;;5.22;2.95;;;6.10;99.90;;;;;;4997518;28;20237;-66
2022/10/04 04:43:56;;;;;;;2.67;2.05;;;6.00;99.90;;;;;;4996808;28;20576;-65
2022/10/04 04:46:22;;;;;;;3.28;2.97;;;6.00;99.90;;;;;;4989788;28;20193;-65
2022/10/04 04:48:55;;;;;;;4.30;3.33;;;6.00;99.90;;;;;;4977306;28;20594;-66
2022/10/04 04:51:23;;;;;;;3.05;2.85;;;6.00;99.90;;;;;;4977423;28;20645;-66
2022/10/04 04:53:51;;;;;;;19.52;4.25;;;6.00;99.90;;;;;;4977095;28;20192;-65
2022/10/04 04:56:20;;;;;;;3.85;3.55;;;6.00;99.90;;;;;;4977707;28;20196;-65
2022/10/04 04:58:48;;;;;;;4.05;3.30;;;6.00;99.90;;;;;;4983921;28;20170;-65
2022/10/04 05:01:27;;;;;;;10.43;3.45;;;6.10;99.90;;;;;;4996869;28;20175;-65
2022/10/04 05:04:25;;;;;;;12.52;5.22;;;6.10;99.90;;;;;;4996240;28;20735;-66
2022/10/04 05:07:05;;;;;;;3.80;3.00;;;6.10;99.90;;;;;;4953708;28;20217;-66
2022/10/04 05:09:37;;;;;;;12.25;3.95;;;6.10;99.90;;;;;;4996991;28;20220;-65
2022/10/04 05:12:17;;;;;;;10.77;4.18;;;6.10;99.90;;;;;;4995488;28;20273;-65
2022/10/04 05:14:51;;;;;;;3.80;3.38;;;6.10;99.90;;;;;;4976904;28;20279;-65
2022/10/04 05:17:33;;;;;;;8.55;4.03;;;6.10;99.90;;;;;;4976515;28;20198;-65
2022/10/04 05:20:00;;;;;;;7.95;5.88;;;6.10;99.90;;;;;;4977368;28;20296;-65
2022/10/04 05:22:27;;;;;;;7.55;5.15;;;6.10;99.90;;;;;;4959701;28;20527;-66
2022/10/04 05:24:59;;;;;;;11.82;5.15;;;6.10;99.90;;;;;;4976705;28;20189;-65
2022/10/04 05:27:43;;;;;;;4.25;3.85;;;6.10;99.90;;;;;;4977450;28;20184;-65
2022/10/04 05:30:36;;;;;;;4.68;2.95;;;6.00;99.90;;;;;;4974170;28;20200;-64
2022/10/04 05:33:10;;;;;;;5.03;3.65;;;6.00;99.90;;;;;;4976517;28;20647;-65
2022/10/04 05:36:09;;;;;;;4.07;3.13;;;6.00;99.90;;;;;;4977036;28;20541;-65
2022/10/04 05:39:05;;;;;;;3.72;2.92;;;6.00;99.90;;;;;;4976964;28;20168;-73
2022/10/04 05:41:41;;;;;;;2.92;2.72;;;6.00;99.90;;;;;;4982733;28;20535;-66
2022/10/04 05:44:34;;;;;;;4.22;3.70;;;6.00;99.90;;;;;;4995767;28;20197;-65
2022/10/04 05:47:02;;;;;;;3.20;2.90;;;6.10;99.90;;;;;;4996207;28;20590;-66
2022/10/04 05:49:33;;;;;;;4.38;3.97;;;6.20;99.90;;;;;;4996085;28;20521;-66
2022/10/04 05:52:02;;;;;;;3.10;2.88;;;6.20;99.90;;;;;;4978271;28;20180;-66
2022/10/04 05:54:34;;;;;;;4.65;3.60;;;6.30;99.90;;;;;;4995378;28;20198;-66
2022/10/04 05:57:11;;;;;;;10.00;5.53;;;6.40;99.90;;;;;;4983247;28;20206;-66
2022/10/04 05:59:54;;;;;;;6.38;4.57;;;6.40;99.90;;;;;;4976448;28;20536;-65
2022/10/04 06:02:37;;;;;;;15.18;5.03;;;6.40;99.90;;;;;;4976171;28;20176;-65
2022/10/04 06:05:34;;;;;;;4.45;3.35;;;6.40;99.90;;;;;;4976092;28;20574;-65
2022/10/04 06:08:28;;;;;;;8.48;5.28;;;6.40;99.90;;;;;;4959476;28;20189;-65
2022/10/04 06:11:08;;;;;;;6.85;5.10;;;6.50;99.90;;;;;;4987252;28;20526;-65
2022/10/04 06:13:55;;;;;;;5.63;4.00;;;6.50;99.90;;;;;;4995254;28;20277;-65
2022/10/04 06:16:59;;;;;;;3.63;3.33;;;6.60;99.90;;;;;;4995630;28;20194;-65
2022/10/04 06:19:30;;;;;;;5.10;4.10;;;6.70;99.90;;;;;;4995679;28;20177;-65
2022/10/04 06:22:12;;;;;;;3.08;2.83;;;6.80;99.90;;;;;;4995605;28;20252;-65
2022/10/04 06:24:40;;;;;;;5.72;4.53;;;6.90;99.90;;;;;;4991088;28;20243;-65
2022/10/04 06:27:19;;;;;;;5.95;4.45;;;6.90;99.90;;;;;;4995179;28;20198;-65
2022/10/04 06:29:52;;;;;;;5.28;4.50;;;6.90;99.90;;;;;;4994871;28;20205;-65
2022/10/04 06:32:48;;;;;;;3.75;3.35;;;6.90;99.90;;;;;;4995352;28;20537;-65
2022/10/04 06:35:29;;;;;;;7.35;4.85;;;7.00;99.90;;;;;;4995079;28;20191;-65
2022/10/04 06:38:30;;;;;;;4.35;3.35;;;7.10;99.90;;;;;;4995728;28;20210;-66
2022/10/04 06:41:08;;;;;;;6.57;4.50;;;7.20;99.90;;;;;;4975825;28;20183;-65
2022/10/04 06:44:21;;;;;;;4.97;4.47;;;7.20;99.90;;;;;;4975312;28;20195;-65
2022/10/04 06:46:51;;;;;;;7.40;4.28;;;7.30;99.90;;;;;;4962444;28;20180;-64
2022/10/04 06:49:46;;;;;;;4.93;3.72;;;7.30;99.90;;;;;;4975581;28;20192;-66
2022/10/04 06:52:34;;;;;;;4.90;3.42;;;7.40;99.90;;;;;;4975395;28;20180;-65
2022/10/04 06:55:32;;;;;;;4.13;3.60;;;7.50;99.90;;;;;;4975624;28;20204;-65
2022/10/04 06:58:34;;;;;;;3.85;3.45;;;7.60;99.90;;;;;;4906204;28;20236;-65
2022/10/04 07:01:23;;;;;;;4.18;3.70;;;7.70;99.90;;;;;;4975227;28;20179;-65
2022/10/04 07:04:14;;;;;;;3.92;3.35;;;7.70;99.90;;;;;;4967656;28;20216;-64
2022/10/04 07:09:58;;;;;;;6.38;4.10;;;7.80;99.90;;;;;;4995105;28;20657;-65
2022/10/04 07:12:26;;;;;;;3.85;3.55;;;8.00;99.90;;;;;;4994488;28;20214;-65
2022/10/04 07:14:59;;;;;;;4.03;3.72;;;8.10;99.90;;;;;;4994314;28;20214;-65
2022/10/04 07:17:37;;;;;;;6.43;3.95;;;8.20;99.90;;;;;;4994451;28;20601;-65
2022/10/04 07:20:05;;;;;;;6.32;4.55;;;8.30;99.90;;;;;;4994365;28;20221;-65
2022/10/04 07:22:59;;;;;;;5.32;4.82;;;8.40;99.90;;;;;;4993425;28;20245;-65
2022/10/04 07:25:44;;;;;;;4.80;4.30;;;8.50;99.90;;;;;;4994322;28;20227;-65
2022/10/04 07:31:08;;;;;;;4.20;3.72;;;8.50;99.90;;;;;;4979167;28;20205;-65
2022/10/04 07:33:48;;;;;;;4.90;3.88;;;8.60;99.90;;;;;;4974554;28;20207;-65
2022/10/04 07:36:23;;;;;;;3.85;3.55;;;8.70;99.90;;;;;;4974808;28;20234;-65
2022/10/04 07:39:00;;;;;;;4.47;4.00;;;8.90;99.90;;;;;;4974845;28;20254;-65
2022/10/04 07:42:02;;;;;;;4.50;4.20;;;8.90;99.90;;;;;;4974773;28;20234;-66
2022/10/04 07:44:40;;;;;;;4.68;3.47;;;8.90;99.90;;;;;;4975891;28;20226;-65
2022/10/04 07:47:26;;;;;;;3.95;3.38;;;9.00;99.90;;;;;;4993959;28;20179;-65
2022/10/04 07:49:53;;;;;;;7.10;4.32;;;9.20;99.90;;;;;;4993993;28;20637;-66
2022/10/04 07:52:42;;;;;;;4.10;3.80;;;9.30;99.90;;;;;;4994093;28;20176;-66
2022/10/04 07:55:31;;;;;;;4.35;3.95;;;9.50;99.90;;;;;;4994028;28;20531;-66
2022/10/04 07:58:24;;;;;;;5.65;3.42;;;9.80;99.90;;;;;;4974447;28;20249;-66
2022/10/04 08:00:59;;;;;;;4.38;3.88;;;10.30;99.90;;;;;;4974641;28;20223;-65
2022/10/04 08:03:50;;;;;;;3.50;3.20;;;10.70;99.90;;;;;;4974280;28;20201;-66
2022/10/04 08:06:30;;;;;;;5.80;3.47;;;11.10;99.90;;;;;;4957421;28;20200;-65
2022/10/04 08:09:22;;;;;;;4.27;3.87;;;11.40;99.90;;;;;;4974702;28;20401;-65
2022/10/04 08:12:10;;;;;;;4.50;4.10;;;11.70;99.90;;;;;;4974840;28;20437;-66
2022/10/04 08:14:53;;;;;;;4.80;4.40;;;11.80;99.90;;;;;;4957796;28;20434;-66
2022/10/04 08:17:46;;;;;;;5.17;4.43;;;11.90;99.90;;;;;;4986126;28;20457;-65
2022/10/04 08:20:25;;;;;;;4.20;3.90;;;12.00;99.90;;;;;;4993806;28;20406;-66
2022/10/04 08:22:58;;;;;;;4.77;3.80;;;12.10;99.90;;;;;;4976075;28;20423;-66
2022/10/04 08:25:41;;;;;;;4.80;3.83;;;12.40;99.90;;;;;;4993736;28;20423;-66
2022/10/04 08:31:13;;;;;;;6.83;5.77;;;12.80;99.90;;;;;;4985372;28;20410;-66
2022/10/04 08:33:52;;;;;;;12.07;8.47;;;12.80;99.90;;;;;;4973803;28;20440;-66
2022/10/04 08:36:37;;;;;;;11.40;8.27;;;12.90;99.90;;;;;;4956692;28;20451;-66
2022/10/04 08:39:17;;;;;;;6.73;4.87;;;12.90;99.90;;;;;;4974127;28;20410;-66
2022/10/04 08:42:10;;;;;;;4.17;3.63;;;13.10;99.90;;;;;;4974319;28;20410;-66
2022/10/04 08:44:50;;;;;;;5.60;3.90;;;;;;;;;;4973544;28;20454;-66
2022/10/04 08:47:35;;;;;;;3.87;3.40;;;;;;;;;;4974712;28;20436;-66
2022/10/04 08:50:33;;;;;;;4.00;3.40;;;13.50;99.90;;;;;;4974049;28;20495;-66
2022/10/04 08:53:31;;;;;;;2.83;2.60;;;16.00;99.90;;;;;;4975497;28;20510;-67
2022/10/04 08:56:03;;;;;;;3.37;2.63;;;16.40;99.90;;;;;;4934595;28;20497;-67
2022/10/04 08:58:37;;;;;;;2.90;2.70;;;16.70;99.90;;;;;;4960014;28;20419;-66
2022/10/04 09:01:40;;;;;;;3.60;3.30;;;17.00;99.90;;;;;;4977543;28;20747;-67
2022/10/04 09:04:36;;;;;;;2.70;2.50;;;17.20;99.90;;;;;;4976729;28;20469;-66
2022/10/04 09:07:25;;;;;;;2.87;2.60;;;17.90;99.90;;;;;;4977563;28;20425;-67
2022/10/04 09:10:12;;;;;;;3.93;2.50;;;18.80;99.90;;;;;;4977323;28;20395;-67
2022/10/04 09:12:55;;;;;;;6.03;2.50;;;19.70;99.90;;;;;;4976970;28;20415;-68
2022/10/04 09:15:36;;;;;;;3.43;3.13;;;20.50;99.90;;;;;;4959846;28;20447;-68
2022/10/04 09:18:07;;;;;;;2.60;2.40;;;;;;;;;;4977140;28;20458;-67
2022/10/04 09:21:01;;;;;;;6.07;3.47;;;;;;;;;;4977138;28;20408;-67
2022/10/04 09:23:30;;;;;;;3.10;2.63;;;;;;;;;;4973672;28;20485;-67
2022/10/04 09:26:17;;;;;;;3.80;3.10;;;21.00;99.90;;;;;;4977246;28;20407;-67
2022/10/04 09:29:20;;;;;;;5.40;3.33;;;23.40;94.40;;;;;;4988485;28;20764;-68
2022/10/04 09:32:05;;;;;;;3.37;3.00;;;23.60;94.90;;;;;;4996543;28;20418;-67
2022/10/04 09:34:48;;;;;;;2.27;2.17;;;24.20;93.40;;;;;;4983424;28;20849;-67
2022/10/04 09:37:30;;;;;;;2.83;2.43;;;24.70;91.50;;;;;;4976966;28;20421;-67
2022/10/04 09:40:13;;;;;;;3.40;3.10;;;25.00;91.80;;;;;;4976420;28;20959;-67
2022/10/04 09:42:45;;;;;;;2.53;2.17;;;24.90;88.80;;;;;;4976397;28;20400;-67
2022/10/04 09:45:29;;;;;;;2.40;2.17;;;24.60;90.30;;;;;;4991563;28;20451;-67
2022/10/04 09:48:17;;;;;;;3.00;2.67;;;24.40;89.60;;;;;;4996270;28;20748;-67
2022/10/04 09:50:46;;;;;;;2.70;2.10;;;24.40;89.20;;;;;;4996147;28;20417;-67
2022/10/04 09:53:36;;;;;;;2.47;1.80;;;24.00;90.00;;;;;;4995499;28;20446;-67
2022/10/04 09:56:35;;;;;;;1.80;1.70;;;23.80;89.40;;;;;;4996102;28;20931;-67
2022/10/04 09:59:26;;;;;;;5.10;2.50;;;23.80;88.90;;;;;;4987480;28;20786;-67
2022/10/04 10:02:16;;;;;;;2.90;2.70;;;23.80;90.70;;;;;;4990807;28;20451;-67
2022/10/04 10:04:46;;;;;;;2.50;2.30;;;24.00;90.10;;;;;;4975625;28;20430;-67
2022/10/04 10:07:14;;;;;;;2.30;2.00;;;23.80;88.70;;;;;;4976551;28;20444;-67
2022/10/04 10:16:24;;;;;;;2.47;2.27;;;22.60;90.60;;;;;;4943456;28;20419;-66
2022/10/04 10:19:21;;;;;;;2.40;2.20;;;22.70;91.10;;;;;;4976089;28;20498;-68
2022/10/04 10:21:58;;;;;;;2.57;2.07;;;22.80;91.30;;;;;;4975837;28;20394;-67
2022/10/04 10:24:46;;;;;;;2.33;1.70;;;22.80;92.10;;;;;;4976087;28;20821;-66
2022/10/04 10:27:18;;;;;;;2.40;1.80;;;22.90;90.60;;;;;;4976166;28;20466;-66
2022/10/04 10:29:55;;;;;;;2.83;2.07;;;23.00;90.70;;;;;;4993267;28;20431;-67
2022/10/04 10:32:36;;;;;;;2.07;1.97;;;23.10;91.60;;;;;;4995549;28;20793;-67
2022/10/04 10:35:36;;;;;;;2.07;1.87;;;23.20;90.80;;;;;;4995228;28;20402;-67
2022/10/04 10:38:23;;;;;;;2.40;2.20;;;23.10;90.50;;;;;;4995203;28;20437;-66
2022/10/04 10:40:58;;;;;;;2.13;1.97;;;22.90;91.30;;;;;;4995201;28;20413;-66
2022/10/04 10:43:36;;;;;;;3.00;2.10;;;22.70;91.00;;;;;;4985076;28;20949;-67
2022/10/04 10:46:45;;;;;;;1.90;1.80;;;22.60;91.80;;;;;;4976110;28;20389;-67
2022/10/04 10:49:46;;;;;;;2.47;2.27;;;22.80;91.60;;;;;;4975746;28;20749;-67
2022/10/04 10:52:44;;;;;;;3.47;1.80;;;22.80;91.30;;;;;;4975716;28;20457;-66
2022/10/04 10:55:49;;;;;;;2.30;2.10;;;22.80;91.30;;;;;;4940372;28;20425;-66
2022/10/04 10:58:36;;;;;;;2.00;1.90;;;22.60;90.70;;;;;;4975979;28;20404;-67
2022/10/04 11:01:14;;;;;;;2.50;2.00;;;22.40;91.90;;;;;;4975470;28;20911;-67
2022/10/04 11:04:01;;;;;;;1.80;1.70;;;22.20;91.40;;;;;;4957423;28;20436;-67
2022/10/04 11:06:45;;;;;;;2.70;1.80;;;21.90;91.90;;;;;;4975055;28;20427;-67
2022/10/04 11:09:39;;;;;;;5.53;2.00;;;21.50;92.00;;;;;;4975171;28;20415;-67
2022/10/04 11:12:23;;;;;;;1.80;1.60;;;21.00;92.70;;;;;;4977391;28;20499;-67
2022/10/04 11:15:08;;;;;;;1.97;1.77;;;20.80;94.10;;;;;;4985128;28;20506;-67
2022/10/04 11:17:33;;;;;;;2.23;1.60;;;20.70;94.70;;;;;;4975036;28;20489;-66
2022/10/04 11:20:25;;;;;;;2.20;1.90;;;20.50;94.10;;;;;;4975077;28;20408;-66
2022/10/04 11:23:18;;;;;;;4.93;2.00;;;20.20;93.00;;;;;;4992303;28;20177;-68
2022/10/04 11:26:18;;;;;;;2.10;1.90;;;19.80;93.60;;;;;;4994475;28;20798;-67
2022/10/04 11:29:21;;;;;;;1.80;1.60;;;19.40;94.70;;;;;;4994540;28;20422;-67
2022/10/04 11:31:53;;;;;;;2.67;1.57;;;19.20;95.90;;;;;;4994698;28;20770;-68
2022/10/04 11:35:16;;;;;;;2.13;1.33;;;19.20;95.90;;;;;;4993817;28;20916;-68
2022/10/04 11:38:10;;;;;;;2.60;2.03;;;19.30;95.70;;;;;;4911768;29;20477;-69
2022/10/04 11:40:51;;;;;;;1.53;1.43;;;19.20;95.80;;;;;;4896505;29;20423;-68
2022/10/04 11:43:48;;;;;;;4.13;1.97;;;18.90;96.00;;;;;;4955840;28;20432;-68
2022/10/04 11:46:23;;;;;;;4.70;2.07;;;18.70;95.80;;;;;;4973493;28;20423;-67
2022/10/04 11:48:54;;;;;;;1.70;1.47;;;18.60;96.30;;;;;;4975009;28;20473;-68
2022/10/04 11:51:34;;;;;;;1.40;1.30;;;18.50;97.10;;;;;;4974690;28;20412;-67
2022/10/04 11:54:26;;;;;;;2.00;1.80;;;18.40;97.30;;;;;;4972907;28;20937;-67
2022/10/04 11:57:31;;;;;;;1.50;1.43;;;18.70;98.20;;;;;;4974868;28;20470;-67
2022/10/04 12:00:19;;;;;;;2.40;2.07;;;18.90;97.90;;;;;;4963855;28;20431;-68
2022/10/04 12:03:08;;;;;;;1.70;1.60;;;19.20;97.00;;;;;;4974272;28;20459;-68
2022/10/04 12:05:55;;;;;;;3.60;1.70;;;19.40;97.20;;;;;;4974532;28;20423;-67
2022/10/04 12:08:29;;;;;;;1.77;1.67;;;19.50;97.10;;;;;;4974559;28;20476;-67
2022/10/04 12:11:21;;;;;;;1.50;1.40;;;19.50;96.30;;;;;;4957362;28;20844;-68
2022/10/04 12:14:00;;;;;;;1.50;1.40;;;19.50;96.00;;;;;;4971937;28;20451;-66
2022/10/04 12:16:55;;;;;;;1.80;1.70;;;19.70;96.30;;;;;;4974409;28;20458;-67
2022/10/04 12:19:51;;;;;;;2.67;2.00;;;19.80;96.40;;;;;;4974573;28;20412;-68
2022/10/04 12:22:38;;;;;;;1.60;1.50;;;19.90;95.60;;;;;;4987311;28;20521;-67
2022/10/04 12:25:25;;;;;;;1.97;1.63;;;20.00;94.60;;;;;;4993759;28;20453;-67
2022/10/04 12:28:10;;;;;;;5.67;1.70;;;20.00;95.30;;;;;;4997365;28;20397;-67
2022/10/04 12:31:02;;;;;;;1.67;1.57;;;20.10;95.50;;;;;;4979947;28;20493;-68
2022/10/04 12:33:50;;;;;;;2.10;1.67;;;20.00;95.20;;;;;;4967517;28;20783;-67
2022/10/04 12:36:37;;;;;;;1.83;1.63;;;20.00;95.60;;;;;;4989572;28;20429;-69
2022/10/04 12:39:24;;;;;;;2.27;1.87;;;19.90;94.90;;;;;;4977992;28;20824;-69
2022/10/04 12:42:05;;;;;;;1.40;1.30;;;19.80;95.30;;;;;;4989380;28;20497;-69
2022/10/04 12:44:49;;;;;;;5.80;1.70;;;19.80;95.40;;;;;;4996946;28;20415;-68
2022/10/04 12:47:40;;;;;;;3.03;1.57;;;19.70;95.70;;;;;;4997250;28;20418;-68
2022/10/04 12:50:31;;;;;;;1.67;1.57;;;19.60;95.80;;;;;;4996543;28;20409;-69
2022/10/04 12:53:08;;;;;;;3.00;2.80;;;19.60;95.90;;;;;;4996648;28;20415;-68
2022/10/04 12:56:00;;;;;;;1.77;1.67;;;19.50;96.00;;;;;;4997087;28;20410;-67
2022/10/04 12:58:35;;;;;;;1.50;1.40;;;19.50;95.70;;;;;;4997246;28;20795;-69
2022/10/04 13:01:40;;;;;;;2.73;1.50;;;19.40;95.70;;;;;;4996786;28;20410;-67
2022/10/04 13:04:30;;;;;;;2.10;1.90;;;19.30;96.30;;;;;;4996491;28;20565;-71
2022/10/04 13:06:55;;;;;;;1.60;1.50;;;19.20;96.20;;;;;;4979696;28;20419;-69
2022/10/04 13:09:43;;;;;;;2.20;2.00;;;19.30;96.70;;;;;;4977597;28;20420;-70
2022/10/04 13:12:26;;;;;;;1.87;1.77;;;19.20;96.70;;;;;;4960064;28;20223;-70
2022/10/04 13:15:28;;;;;;;7.30;1.80;;;19.20;96.60;;;;;;4977233;28;20507;-69
2022/10/04 13:18:04;;;;;;;1.80;1.70;;;19.10;96.60;;;;;;4977146;28;20829;-69
2022/10/04 13:20:44;;;;;;;2.70;1.83;;;19.10;96.70;;;;;;4978265;28;20419;-70
2022/10/04 13:23:13;;;;;;;2.90;1.83;;;19.00;96.90;;;;;;4976792;28;20431;-69
2022/10/04 13:26:02;;;;;;;1.90;1.77;;;19.00;96.80;;;;;;4976970;28;20494;-69
2022/10/04 13:28:43;;;;;;;1.90;1.70;;;19.00;96.30;;;;;;4976958;28;20923;-68
2022/10/04 13:31:24;;;;;;;2.67;1.30;;;19.00;97.10;;;;;;4977068;28;20400;-67
2022/10/04 13:34:13;;;;;;;1.80;1.70;;;19.00;95.90;;;;;;4976194;28;20438;-66
2022/10/04 13:37:23;;;;;;;1.70;1.60;;;19.00;95.90;;;;;;4995427;28;20466;-67
2022/10/04 13:40:14;;;;;;;1.63;1.53;;;19.10;96.40;;;;;;4996036;28;20407;-66
2022/10/04 13:42:57;;;;;;;1.83;1.40;;;19.10;96.60;;;;;;4995266;28;20414;-66
2022/10/04 13:45:26;;;;;;;4.33;1.77;;;19.10;96.20;;;;;;4996248;28;20804;-65
2022/10/04 13:48:11;;;;;;;4.10;1.93;;;19.20;96.80;;;;;;4996172;28;20450;-67
2022/10/04 13:51:06;;;;;;;2.77;2.47;;;19.20;97.20;;;;;;4983095;28;20449;-66
2022/10/04 13:56:50;;;;;;;3.50;1.67;;;19.40;96.90;;;;;;4974704;28;20510;-66
2022/10/04 13:59:48;;;;;;;1.70;1.60;;;19.40;96.70;;;;;;4974489;28;20782;-67
2022/10/04 14:02:44;;;;;;;2.00;1.30;;;19.40;96.10;;;;;;4944174;28;20427;-66
2022/10/04 14:06:03;;;;;;;1.70;1.60;;;19.40;95.60;;;;;;4974936;28;20460;-66
2022/10/04 14:09:00;;;;;;;1.80;1.70;;;19.40;95.90;;;;;;4898029;29;20475;-66
2022/10/04 14:11:48;;;;;;;3.87;1.40;;;19.40;96.40;;;;;;4898063;29;20453;-66
2022/10/04 14:14:47;;;;;;;2.53;1.33;;;19.40;96.60;;;;;;4962174;28;20436;-66
2022/10/04 14:17:53;;;;;;;1.50;1.40;;;19.40;96.00;;;;;;4976272;28;20534;-66
2022/10/04 14:20:37;;;;;;;1.83;1.53;;;19.30;96.10;;;;;;4976555;28;20423;-66
2022/10/04 14:23:14;;;;;;;2.60;1.60;;;19.20;95.60;;;;;;4975807;28;20453;-65
2022/10/04 14:26:00;;;;;;;1.80;1.43;;;19.20;96.10;;;;;;4976247;28;20415;-64
2022/10/04 14:28:50;;;;;;;1.93;1.40;;;19.20;95.70;;;;;;4976087;28;20984;-66
2022/10/04 14:31:27;;;;;;;1.37;1.37;;;19.20;95.80;;;;;;4976143;28;20430;-67
2022/10/04 14:34:14;;;;;;;2.43;1.60;;;19.20;95.80;;;;;;4962485;28;20435;-66
2022/10/04 14:36:49;;;;;;;1.50;1.40;;;19.20;96.20;;;;;;4995348;28;20538;-66
2022/10/04 14:39:49;;;;;;;1.83;1.43;;;19.20;95.90;;;;;;4995131;28;20422;-66
2022/10/04 14:42:52;;;;;;;1.77;1.67;;;19.20;95.80;;;;;;4953449;28;20446;-66
2022/10/04 14:45:39;;;;;;;1.63;1.53;;;19.20;96.00;;;;;;4994970;28;20494;-66
2022/10/04 14:48:16;;;;;;;1.53;1.43;;;19.20;96.00;;;;;;4994677;28;20561;-67
2022/10/04 14:50:56;;;;;;;1.70;1.60;;;19.10;96.10;;;;;;4974693;28;20453;-66
2022/10/04 14:53:28;;;;;;;1.83;1.53;;;19.10;96.00;;;;;;4975139;28;20498;-65
2022/10/04 14:56:02;;;;;;;1.00;1.00;;;19.00;96.10;;;;;;4975990;28;20412;-66
2022/10/04 14:58:52;;;;;;;2.20;1.47;;;19.10;96.20;;;;;;4975686;28;20424;-66
2022/10/04 15:01:26;;;;;;;3.70;1.40;;;19.10;96.40;;;;;;4975554;28;20430;-66
2022/10/04 15:04:13;;;;;;;1.60;1.50;;;19.00;96.30;;;;;;4982950;28;20998;-67
2022/10/04 15:06:47;;;;;;;1.40;1.30;;;19.00;96.40;;;;;;4994938;28;20415;-66
2022/10/04 15:09:25;;;;;;;1.27;1.20;;;19.00;95.70;;;;;;4994818;28;20403;-66
2022/10/04 15:12:15;;;;;;;1.70;1.47;;;19.00;95.80;;;;;;4994519;28;20414;-66
2022/10/04 15:15:12;;;;;;;2.17;1.50;;;19.00;95.60;;;;;;4994140;28;20430;-67
2022/10/04 15:17:46;;;;;;;1.07;1.07;;;19.00;95.50;;;;;;4993585;28;20563;-66
2022/10/04 15:20:24;;;;;;;1.37;1.27;;;19.00;96.00;;;;;;4957753;28;20407;-66
2022/10/04 15:23:15;;;;;;;1.77;1.33;;;19.00;95.60;;;;;;4991513;28;20426;-65
2022/10/04 15:25:59;;;;;;;1.30;1.30;;;18.90;95.20;;;;;;4994934;28;20403;-66
2022/10/04 15:28:43;;;;;;;2.80;1.60;;;18.90;95.40;;;;;;4994473;28;20417;-66
2022/10/04 15:31:25;;;;;;;1.30;1.20;;;18.80;95.50;;;;;;4994524;28;20415;-66
2022/10/04 15:34:10;;;;;;;3.43;1.60;;;18.80;95.50;;;;;;4981009;28;20498;-65
2022/10/04 15:37:00;;;;;;;3.43;3.23;;;18.80;95.50;;;;;;4974987;28;20455;-66
2022/10/04 15:39:53;;;;;;;2.03;1.77;;;18.80;95.50;;;;;;4974803;28;20453;-67
2022/10/04 15:42:29;;;;;;;1.40;1.30;;;18.80;95.70;;;;;;4974811;28;20766;-66
2022/10/04 15:45:16;;;;;;;1.30;1.20;;;18.70;95.80;;;;;;4974773;28;20441;-66
2022/10/04 15:47:59;;;;;;;2.53;1.20;;;18.70;96.00;;;;;;4984539;28;20517;-66
2022/10/04 15:50:36;;;;;;;1.10;1.10;;;18.70;96.10;;;;;;4994299;28;20417;-66
2022/10/04 15:53:09;;;;;;;1.77;1.60;;;18.60;96.00;;;;;;4993894;28;20424;-66
2022/10/04 15:55:34;;;;;;;2.70;1.80;;;18.60;95.80;;;;;;4994164;28;20512;-66
2022/10/04 15:58:19;;;;;;;1.83;1.50;;;18.60;95.70;;;;;;4993996;28;21062;-65
2022/10/04 16:00:50;;;;;;;1.57;1.47;;;18.50;95.70;;;;;;4994743;28;20634;-64
2022/10/04 16:03:28;;;;;;;2.03;1.20;;;18.50;95.70;;;;;;4999766;28;20413;-66
2022/10/04 16:06:16;;;;;;;1.80;1.70;;;18.40;95.90;;;;;;4999705;28;20516;-66
2022/10/04 16:09:01;;;;;;;1.50;1.40;;;18.40;95.90;;;;;;4998420;28;20423;-66
2022/10/04 16:11:46;;;;;;;1.30;1.20;;;18.40;96.20;;;;;;4985339;28;20819;-65
2022/10/04 16:14:47;;;;;;;5.10;1.20;;;18.30;96.30;;;;;;4989411;28;20465;-66
2022/10/04 16:17:42;;;;;;;1.73;1.63;;;18.20;96.40;;;;;;4953046;28;20998;-66
2022/10/04 16:20:26;;;;;;;2.70;1.40;;;18.10;96.50;;;;;;4959693;28;20486;-66
2022/10/04 16:23:30;;;;;;;3.70;1.57;;;18.10;96.70;;;;;;4986876;28;20498;-66
2022/10/04 16:26:26;;;;;;;2.23;1.30;;;18.00;97.00;;;;;;4981541;28;20424;-66
2022/10/04 16:29:15;;;;;;;2.10;2.00;;;17.90;97.50;;;;;;4933102;28;20452;-67
2022/10/04 16:31:52;;;;;;;1.97;1.30;;;17.80;97.80;;;;;;4980898;28;20847;-65
2022/10/04 16:34:32;;;;;;;1.53;1.43;;;17.70;98.10;;;;;;4981123;28;20499;-66
2022/10/04 16:37:13;;;;;;;1.90;1.80;;;17.60;98.40;;;;;;4980685;28;20463;-67
2022/10/04 16:40:04;;;;;;;3.13;2.13;;;17.50;98.80;;;;;;4981339;28;20482;-66
2022/10/04 16:42:48;;;;;;;2.30;1.67;;;17.40;99.10;;;;;;4999106;28;20470;-68
2022/10/04 16:45:56;;;;;;;1.77;1.67;;;17.30;99.30;;;;;;4980772;28;20525;-66
2022/10/04 16:48:37;;;;;;;1.33;1.33;;;17.20;99.80;;;;;;4962566;28;20485;-65
2022/10/04 16:51:17;;;;;;;4.90;2.60;;;17.10;99.90;;;;;;4990201;28;20446;-68
2022/10/04 16:53:58;;;;;;;2.30;1.93;;;17.00;99.90;;;;;;4986904;28;20856;-65
2022/10/04 16:56:25;;;;;;;1.70;1.43;;;16.90;99.90;;;;;;4987552;28;20509;-67
2022/10/04 16:59:09;;;;;;;2.30;2.10;;;16.90;99.90;;;;;;5001573;28;20432;-66
2022/10/04 17:01:55;;;;;;;3.33;2.20;;;16.70;99.90;;;;;;4999736;28;20770;-64
2022/10/04 17:04:23;;;;;;;2.20;2.00;;;16.70;99.90;;;;;;4990217;28;20463;-65
2022/10/04 17:07:06;;;;;;;1.93;1.83;;;16.60;99.90;;;;;;4994323;28;20432;-65
2022/10/04 17:09:46;;;;;;;2.10;1.90;;;16.50;99.90;;;;;;5004873;28;20426;-67
2022/10/04 17:12:34;;;;;;;1.90;1.80;;;16.40;99.90;;;;;;4989899;28;20419;-70
2022/10/04 17:15:08;;;;;;;1.50;1.40;;;16.30;99.90;;;;;;4994577;28;20459;-68
2022/10/04 17:18:04;;;;;;;2.53;2.33;;;16.20;99.90;;;;;;4977790;28;20462;-66
2022/10/04 17:20:44;;;;;;;2.43;2.03;;;16.10;99.90;;;;;;4980234;28;20868;-66
2022/10/04 17:23:25;;;;;;;1.63;1.53;;;16.00;99.90;;;;;;4979858;28;20513;-66
2022/10/04 17:26:06;;;;;;;3.00;2.80;;;15.90;99.90;;;;;;4979456;28;20423;-66
2022/10/04 17:29:02;;;;;;;3.00;2.80;;;15.80;99.90;;;;;;4977888;28;20422;-66
2022/10/04 17:31:28;;;;;;;3.23;2.20;;;15.70;99.90;;;;;;4984200;28;20499;-65
2022/10/04 17:34:15;;;;;;;4.60;2.10;;;15.70;99.90;;;;;;4995647;28;20526;-66
2022/10/04 17:37:13;;;;;;;2.63;2.43;;;15.60;99.90;;;;;;4982367;28;20666;-67
2022/10/04 17:40:06;;;;;;;2.70;2.47;;;15.60;99.90;;;;;;4941769;28;20427;-67
2022/10/04 17:42:59;;;;;;;3.60;2.63;;;15.50;99.90;;;;;;4962272;28;20481;-67
2022/10/04 17:45:45;;;;;;;2.40;2.00;;;15.50;99.90;;;;;;4976711;28;20420;-67
2022/10/04 17:57:46;;;;;;;2.13;1.93;;;15.20;99.90;;;;;;4877598;29;20515;-65
2022/10/04 18:00:15;;;;;;;3.63;2.40;;;15.10;99.90;;;;;;4978349;28;20427;-65
2022/10/04 18:03:06;;;;;;;3.10;2.20;;;14.90;99.90;;;;;;4988818;28;20521;-65
2022/10/04 18:05:40;;;;;;;2.50;2.30;;;14.80;99.90;;;;;;4975625;28;20514;-67
2022/10/04 18:08:39;;;;;;;3.03;2.77;;;14.70;99.90;;;;;;4975656;28;20426;-66
2022/10/04 18:11:25;;;;;;;2.37;2.10;;;14.60;99.90;;;;;;4978487;28;20424;-65
2022/10/04 18:14:08;;;;;;;3.33;2.47;;;14.50;99.90;;;;;;4983024;28;20873;-66
2022/10/04 18:16:53;;;;;;;2.40;2.20;;;14.40;99.90;;;;;;4983456;28;20457;-66
2022/10/04 18:19:48;;;;;;;2.23;2.10;;;14.30;99.90;;;;;;4981615;28;20438;-66
2022/10/04 18:22:28;;;;;;;2.90;2.70;;;14.20;99.90;;;;;;4962888;28;20418;-66
2022/10/04 18:25:14;;;;;;;5.20;2.30;;;14.10;99.90;;;;;;4982102;28;20524;-66
2022/10/04 18:28:06;;;;;;;2.57;2.30;;;14.10;99.90;;;;;;4983982;28;20477;-66
2022/10/04 18:31:00;;;;;;;3.13;2.60;;;14.10;99.90;;;;;;4983856;28;20416;-66
2022/10/04 18:33:45;;;;;;;4.00;2.97;;;14.00;99.90;;;;;;4985026;28;20445;-66
2022/10/04 18:36:36;;;;;;;2.73;2.50;;;14.00;99.90;;;;;;4980979;28;20423;-66
2022/10/04 18:39:11;;;;;;;2.53;2.33;;;14.00;99.90;;;;;;4948688;28;20445;-66
2022/10/04 18:41:50;;;;;;;2.83;2.63;;;13.90;99.90;;;;;;4981474;28;20929;-66
2022/10/04 18:44:20;;;;;;;4.40;3.33;;;13.90;99.90;;;;;;4993748;28;20444;-66
2022/10/04 18:46:49;;;;;;;4.00;3.70;;;13.80;99.90;;;;;;4994737;28;20417;-66
2022/10/04 18:49:25;;;;;;;4.97;2.83;;;13.80;99.90;;;;;;4984460;28;20435;-66
2022/10/04 18:52:06;;;;;;;2.83;2.60;;;13.70;99.90;;;;;;4993047;28;20939;-67